F/V Atalante — FVRQ — position and weather

sailwx.info

Track history (hours):
 
Tides and Currents Weather Stations Pressure Air Temp Water Temp Dewpoint Dewpoint Depression Visibility Wind Speed Wind Dir Waves Ship Positions

F/V Atalante

Last reported at 2017-Jan-17 12:16 UTC. Time now 2017-Jan-18 20:24 UTC.
Position N 44°53' W 001°29'.

Length 21 m; draft 3.9 m.

Type: . MMSI: 228854000.

Date/timePositionNaut miles runAvg speedWind from/ knotsBaromVisibWave heightAir tempDewpointWater temp
2017-Jan-17 12:16N 44°53' W 001°29'2 3.2
2017-Jan-17 11:33N 44°51' W 001°30'3 3.0
2017-Jan-17 10:33N 44°48' W 001°30'2 1.7
2017-Jan-17 09:33N 44°46' W 001°30'4 3.5
2017-Jan-17 08:32N 44°50' W 001°30'4 3.7
2017-Jan-17 07:28N 44°54' W 001°30'0 0.0
2017-Jan-16 12:10N 44°54' W 001°29'1 2.1
2017-Jan-16 11:33N 44°53' W 001°30'3 3.2
2017-Jan-16 10:33N 44°49' W 001°30'2 1.9
2017-Jan-16 09:33N 44°48' W 001°30'3 2.9
2017-Jan-16 08:33N 44°45' W 001°30'3 2.9
2017-Jan-16 07:33N 44°42' W 001°29'3 2.8
2017-Jan-16 06:33N 44°39' W 001°29'2 2.4
2017-Jan-16 05:34N 44°37' W 001°30'3 2.7
2017-Jan-16 04:33N 44°39' W 001°31'3 3.4
2017-Jan-16 03:33N 44°43' W 001°32'4 4.1
2017-Jan-16 02:33N 44°47' W 001°31'4 3.9
2017-Jan-16 01:33N 44°51' W 001°31'2 0.4
2017-Jan-15 20:13N 44°53' W 001°30'2 3.0
2017-Jan-15 19:33N 44°51' W 001°30'3 2.8
2017-Jan-15 18:33N 44°48' W 001°30'3 2.6
2017-Jan-15 17:33N 44°46' W 001°29'2 2.1
2017-Jan-15 16:33N 44°43' W 001°29'3 3.0
2017-Jan-15 15:33N 44°41' W 001°28'3 2.9
2017-Jan-15 14:33N 44°38' W 001°26'3 3.2
2017-Jan-15 13:33N 44°35' W 001°26'2 2.3
2017-Jan-15 12:33N 44°32' W 001°26'3 3.2
2017-Jan-15 11:33N 44°29' W 001°26'3 3.3
2017-Jan-15 10:32N 44°26' W 001°26'3 3.3
2017-Jan-15 09:33N 44°23' W 001°26'2 0.3
2017-Jan-15 02:26N 44°23' W 001°23'  
2017-Jan-12 09:18N 44°28' W 001°25'3 3.0
2017-Jan-12 08:22N 44°31' W 001°25'3 3.1
2017-Jan-12 07:31N 44°34' W 001°25'2 1.6
2017-Jan-12 06:33N 44°35' W 001°26'3 3.0
2017-Jan-12 05:34N 44°33' W 001°25'3 3.0
2017-Jan-12 04:34N 44°30' W 001°25'4 3.2
2017-Jan-12 03:14N 44°25' W 001°26'2 3.2
2017-Jan-12 02:33N 44°23' W 001°26'9 1.3
2017-Jan-11 19:25N 44°30' W 001°35'2 2.8
2017-Jan-11 18:33N 44°32' W 001°32'3 2.9
2017-Jan-11 17:33N 44°34' W 001°30'2 2.1
2017-Jan-11 16:34N 44°36' W 001°29'3 3.3
2017-Jan-11 15:33N 44°39' W 001°29'3 3.2
2017-Jan-11 14:33N 44°43' W 001°29'3 3.0
2017-Jan-11 13:34N 44°46' W 001°29'3 3.0
2017-Jan-11 12:34N 44°48' W 001°31'3 2.9
2017-Jan-11 11:33N 44°51' W 001°30'3 3.0
2017-Jan-11 10:25N 44°54' W 001°30'3 2.4
2017-Jan-11 09:15N 44°52' W 001°30'2 3.1
2017-Jan-11 08:34N 44°50' W 001°32'1 1.4
2017-Jan-11 07:32N 44°51' W 001°31'3 2.9
2017-Jan-11 06:33N 44°54' W 001°31'150 3.9
2017-Jan-09 16:33N 47°17' W 002°35'5 4.6
2017-Jan-09 15:27N 47°21' W 002°31'0 0.0
2017-Jan-09 14:33N 47°21' W 002°31'0 0.0
2017-Jan-09 13:33N 47°21' W 002°31'0 0.0
2017-Jan-09 12:33N 47°21' W 002°31'9 9.4
2017-Jan-09 11:33N 47°17' W 002°43'1010.3
2017-Jan-09 10:33N 47°10' W 002°54'4 3.9
2017-Jan-09 09:33N 47°07' W 002°59'3 2.8
2017-Jan-09 08:33N 47°09' W 002°55'3 3.0
2017-Jan-09 07:33N 47°10' W 002°51'3 2.6
2017-Jan-09 06:33N 47°08' W 002°50'2 1.8
2017-Jan-09 05:30N 47°07' W 002°52'3 2.8
2017-Jan-09 04:33N 47°07' W 002°55'3 2.8
2017-Jan-09 03:33N 47°10' W 002°53'2 2.5
2017-Jan-09 02:33N 47°09' W 002°49'2 2.4
2017-Jan-09 01:33N 47°07' W 002°49'2 2.5
2017-Jan-09 00:33N 47°07' W 002°53'3 2.8
2017-Jan-08 23:33N 47°08' W 002°56'3 3.1
2017-Jan-08 22:33N 47°11' W 002°59'3 3.1
2017-Jan-08 21:33N 47°10' W 003°03'3 2.7
2017-Jan-08 20:33N 47°08' W 003°06'3 2.8
2017-Jan-08 19:33N 47°06' W 003°03'3 3.0
2017-Jan-08 18:33N 47°09' W 003°02'1 1.5
2017-Jan-08 17:33N 47°09' W 003°03'2 2.1
2017-Jan-08 16:33N 47°08' W 003°05'2 2.5
2017-Jan-08 15:33N 47°05' W 003°05'2 2.5
2017-Jan-08 14:33N 47°07' W 003°08'3 3.3
2017-Jan-08 13:33N 47°09' W 003°05'2 2.0
2017-Jan-08 12:33N 47°08' W 003°02'3 3.1
2017-Jan-08 11:33N 47°05' W 003°03'2 1.7
2017-Jan-08 10:24N 47°07' W 003°05'2 1.9
2017-Jan-08 09:33N 47°08' W 003°06'3 3.1
2017-Jan-08 08:33N 47°06' W 003°08'3 2.9
2017-Jan-08 07:33N 47°04' W 003°05'3 3.2
2017-Jan-08 06:33N 47°01' W 003°03'3 2.8
2017-Jan-08 05:33N 46°59' W 003°01'3 3.0
2017-Jan-08 04:33N 46°57' W 002°57'3 3.4
2017-Jan-08 03:33N 46°58' W 002°52'4 0.7
2017-Jan-07 22:12N 47°01' W 002°52'2 3.1
2017-Jan-07 21:33N 47°03' W 002°54'3 3.0
2017-Jan-07 20:33N 47°03' W 002°58'3 2.7
2017-Jan-07 19:33N 47°01' W 003°01'3 3.2
2017-Jan-07 18:30N 47°04' W 003°04'3 3.1
2017-Jan-07 17:33N 47°07' W 003°04'2 2.3
2017-Jan-07 16:33N 47°09' W 003°02'2 2.3
2017-Jan-07 15:33N 47°07' W 003°05'2 2.1
2017-Jan-07 14:33N 47°05' W 003°05'3 2.7
2017-Jan-07 13:33N 47°06' W 003°09'3 3.2
2017-Jan-07 12:30N 47°09' W 003°05'  
Track history (hours):
 
Tides and Currents Weather Stations Pressure Air Temp Water Temp Dewpoint Dewpoint Depression Visibility Wind Speed Wind Dir Waves Ship Positions

F/V Atalante

Last reported at 2017-Jan-17 12:16 UTC. Time now 2017-Jan-18 20:24 UTC.
Position N 44°53' W 001°29'.

Length 21 m; draft 3.9 m.

Type: . MMSI: 228854000.

Date/timePositionNaut miles runAvg speedWind from/ knotsBaromVisibWave heightAir tempDewpointWater temp
2017-Jan-17 12:16N 44°53' W 001°29'2 3.2
2017-Jan-17 11:33N 44°51' W 001°30'3 3.0
2017-Jan-17 10:33N 44°48' W 001°30'2 1.7
2017-Jan-17 09:33N 44°46' W 001°30'4 3.5
2017-Jan-17 08:32N 44°50' W 001°30'4 3.7
2017-Jan-17 07:28N 44°54' W 001°30'0 0.0
2017-Jan-16 12:10N 44°54' W 001°29'1 2.1
2017-Jan-16 11:33N 44°53' W 001°30'3 3.2
2017-Jan-16 10:33N 44°49' W 001°30'2 1.9
2017-Jan-16 09:33N 44°48' W 001°30'3 2.9
2017-Jan-16 08:33N 44°45' W 001°30'3 2.9
2017-Jan-16 07:33N 44°42' W 001°29'3 2.8
2017-Jan-16 06:33N 44°39' W 001°29'2 2.4
2017-Jan-16 05:34N 44°37' W 001°30'3 2.7
2017-Jan-16 04:33N 44°39' W 001°31'3 3.4
2017-Jan-16 03:33N 44°43' W 001°32'4 4.1
2017-Jan-16 02:33N 44°47' W 001°31'4 3.9
2017-Jan-16 01:33N 44°51' W 001°31'2 0.4
2017-Jan-15 20:13N 44°53' W 001°30'2 3.0
2017-Jan-15 19:33N 44°51' W 001°30'3 2.8
2017-Jan-15 18:33N 44°48' W 001°30'3 2.6
2017-Jan-15 17:33N 44°46' W 001°29'2 2.1
2017-Jan-15 16:33N 44°43' W 001°29'3 3.0
2017-Jan-15 15:33N 44°41' W 001°28'3 2.9
2017-Jan-15 14:33N 44°38' W 001°26'3 3.2
2017-Jan-15 13:33N 44°35' W 001°26'2 2.3
2017-Jan-15 12:33N 44°32' W 001°26'3 3.2
2017-Jan-15 11:33N 44°29' W 001°26'3 3.3
2017-Jan-15 10:32N 44°26' W 001°26'3 3.3
2017-Jan-15 09:33N 44°23' W 001°26'2 0.3
2017-Jan-15 02:26N 44°23' W 001°23'  
2017-Jan-12 09:18N 44°28' W 001°25'3 3.0
2017-Jan-12 08:22N 44°31' W 001°25'3 3.1
2017-Jan-12 07:31N 44°34' W 001°25'2 1.6
2017-Jan-12 06:33N 44°35' W 001°26'3 3.0
2017-Jan-12 05:34N 44°33' W 001°25'3 3.0
2017-Jan-12 04:34N 44°30' W 001°25'4 3.2
2017-Jan-12 03:14N 44°25' W 001°26'2 3.2
2017-Jan-12 02:33N 44°23' W 001°26'9 1.3
2017-Jan-11 19:25N 44°30' W 001°35'2 2.8
2017-Jan-11 18:33N 44°32' W 001°32'3 2.9
2017-Jan-11 17:33N 44°34' W 001°30'2 2.1
2017-Jan-11 16:34N 44°36' W 001°29'3 3.3
2017-Jan-11 15:33N 44°39' W 001°29'3 3.2
2017-Jan-11 14:33N 44°43' W 001°29'3 3.0
2017-Jan-11 13:34N 44°46' W 001°29'3 3.0
2017-Jan-11 12:34N 44°48' W 001°31'3 2.9
2017-Jan-11 11:33N 44°51' W 001°30'3 3.0
2017-Jan-11 10:25N 44°54' W 001°30'3 2.4
2017-Jan-11 09:15N 44°52' W 001°30'2 3.1
2017-Jan-11 08:34N 44°50' W 001°32'1 1.4
2017-Jan-11 07:32N 44°51' W 001°31'3 2.9
2017-Jan-11 06:33N 44°54' W 001°31'150 3.9
2017-Jan-09 16:33N 47°17' W 002°35'5 4.6
2017-Jan-09 15:27N 47°21' W 002°31'0 0.0
2017-Jan-09 14:33N 47°21' W 002°31'0 0.0
2017-Jan-09 13:33N 47°21' W 002°31'0 0.0
2017-Jan-09 12:33N 47°21' W 002°31'9 9.4
2017-Jan-09 11:33N 47°17' W 002°43'1010.3
2017-Jan-09 10:33N 47°10' W 002°54'4 3.9
2017-Jan-09 09:33N 47°07' W 002°59'3 2.8
2017-Jan-09 08:33N 47°09' W 002°55'3 3.0
2017-Jan-09 07:33N 47°10' W 002°51'3 2.6
2017-Jan-09 06:33N 47°08' W 002°50'2 1.8
2017-Jan-09 05:30N 47°07' W 002°52'3 2.8
2017-Jan-09 04:33N 47°07' W 002°55'3 2.8
2017-Jan-09 03:33N 47°10' W 002°53'2 2.5
2017-Jan-09 02:33N 47°09' W 002°49'2 2.4
2017-Jan-09 01:33N 47°07' W 002°49'2 2.5
2017-Jan-09 00:33N 47°07' W 002°53'3 2.8
2017-Jan-08 23:33N 47°08' W 002°56'3 3.1
2017-Jan-08 22:33N 47°11' W 002°59'3 3.1
2017-Jan-08 21:33N 47°10' W 003°03'3 2.7
2017-Jan-08 20:33N 47°08' W 003°06'3 2.8
2017-Jan-08 19:33N 47°06' W 003°03'3 3.0
2017-Jan-08 18:33N 47°09' W 003°02'1 1.5
2017-Jan-08 17:33N 47°09' W 003°03'2 2.1
2017-Jan-08 16:33N 47°08' W 003°05'2 2.5
2017-Jan-08 15:33N 47°05' W 003°05'2 2.5
2017-Jan-08 14:33N 47°07' W 003°08'3 3.3
2017-Jan-08 13:33N 47°09' W 003°05'2 2.0
2017-Jan-08 12:33N 47°08' W 003°02'3 3.1
2017-Jan-08 11:33N 47°05' W 003°03'2 1.7
2017-Jan-08 10:24N 47°07' W 003°05'2 1.9
2017-Jan-08 09:33N 47°08' W 003°06'3 3.1
2017-Jan-08 08:33N 47°06' W 003°08'3 2.9
2017-Jan-08 07:33N 47°04' W 003°05'3 3.2
2017-Jan-08 06:33N 47°01' W 003°03'3 2.8
2017-Jan-08 05:33N 46°59' W 003°01'3 3.0
2017-Jan-08 04:33N 46°57' W 002°57'3 3.4
2017-Jan-08 03:33N 46°58' W 002°52'4 0.7
2017-Jan-07 22:12N 47°01' W 002°52'2 3.1
2017-Jan-07 21:33N 47°03' W 002°54'3 3.0
2017-Jan-07 20:33N 47°03' W 002°58'3 2.7
2017-Jan-07 19:33N 47°01' W 003°01'3 3.2
2017-Jan-07 18:30N 47°04' W 003°04'3 3.1
2017-Jan-07 17:33N 47°07' W 003°04'2 2.3
2017-Jan-07 16:33N 47°09' W 003°02'2 2.3
2017-Jan-07 15:33N 47°07' W 003°05'2 2.1
2017-Jan-07 14:33N 47°05' W 003°05'3 2.7
2017-Jan-07 13:33N 47°06' W 003°09'3 3.2
2017-Jan-07 12:30N 47°09' W 003°05'  

Dump ship's entire track history